sensor_id;sensor_type;location;lat;lon;timestamp;temperature;humidity
29713;DHT22;16623;53.632;10.016;2023-09-19T00:00:20;17.60;99.90
29713;DHT22;16623;53.632;10.016;2023-09-19T00:02:58;17.60;99.90
29713;DHT22;16623;53.632;10.016;2023-09-19T00:05:28;17.60;99.90
29713;DHT22;16623;53.632;10.016;2023-09-19T00:07:56;17.60;99.90
29713;DHT22;16623;53.632;10.016;2023-09-19T00:10:26;17.50;99.90
29713;DHT22;16623;53.632;10.016;2023-09-19T00:12:53;17.60;99.90
29713;DHT22;16623;53.632;10.016;2023-09-19T00:15:27;17.50;99.90
29713;DHT22;16623;53.632;10.016;2023-09-19T00:17:56;17.50;99.90
29713;DHT22;16623;53.632;10.016;2023-09-19T00:20:22;17.50;99.90
29713;DHT22;16623;53.632;10.016;2023-09-19T00:22:51;17.40;99.90
29713;DHT22;16623;53.632;10.016;2023-09-19T00:25:17;17.40;99.90
29713;DHT22;16623;53.632;10.016;2023-09-19T00:27:43;17.40;99.90
29713;DHT22;16623;53.632;10.016;2023-09-19T00:30:11;17.40;99.90
29713;DHT22;16623;53.632;10.016;2023-09-19T00:32:48;17.40;99.90
29713;DHT22;16623;53.632;10.016;2023-09-19T00:35:15;17.40;99.90
29713;DHT22;16623;53.632;10.016;2023-09-19T00:37:41;17.30;99.90
29713;DHT22;16623;53.632;10.016;2023-09-19T00:40:08;17.30;99.90
29713;DHT22;16623;53.632;10.016;2023-09-19T00:42:40;17.40;99.90
29713;DHT22;16623;53.632;10.016;2023-09-19T00:45:10;17.40;99.90
29713;DHT22;16623;53.632;10.016;2023-09-19T00:47:44;17.30;99.90
29713;DHT22;16623;53.632;10.016;2023-09-19T00:50:11;17.30;99.90
29713;DHT22;16623;53.632;10.016;2023-09-19T00:52:40;17.40;99.90
29713;DHT22;16623;53.632;10.016;2023-09-19T00:55:08;17.30;99.90
29713;DHT22;16623;53.632;10.016;2023-09-19T00:57:34;17.30;99.90
29713;DHT22;16623;53.632;10.016;2023-09-19T01:00:02;17.40;99.90
29713;DHT22;16623;53.632;10.016;2023-09-19T01:02:32;17.30;99.90
29713;DHT22;16623;53.632;10.016;2023-09-19T01:04:59;17.40;99.90
29713;DHT22;16623;53.632;10.016;2023-09-19T01:07:26;17.40;99.90
29713;DHT22;16623;53.632;10.016;2023-09-19T01:09:55;17.40;99.90
29713;DHT22;16623;53.632;10.016;2023-09-19T01:12:30;17.40;99.90
29713;DHT22;16623;53.632;10.016;2023-09-19T01:15:10;17.40;99.90
29713;DHT22;16623;53.632;10.016;2023-09-19T01:17:46;17.30;99.90
29713;DHT22;16623;53.632;10.016;2023-09-19T01:20:27;17.30;99.90
29713;DHT22;16623;53.632;10.016;2023-09-19T01:23:07;17.30;99.90
29713;DHT22;16623;53.632;10.016;2023-09-19T01:25:42;17.40;99.90
29713;DHT22;16623;53.632;10.016;2023-09-19T01:28:20;17.30;99.90
29713;DHT22;16623;53.632;10.016;2023-09-19T01:30:47;17.30;99.90
29713;DHT22;16623;53.632;10.016;2023-09-19T01:33:16;17.20;99.90
29713;DHT22;16623;53.632;10.016;2023-09-19T01:35:42;17.20;99.90
29713;DHT22;16623;53.632;10.016;2023-09-19T01:38:07;17.30;99.90
29713;DHT22;16623;53.632;10.016;2023-09-19T01:40:41;17.30;99.90
29713;DHT22;16623;53.632;10.016;2023-09-19T01:43:20;17.20;99.90
29713;DHT22;16623;53.632;10.016;2023-09-19T01:48:38;17.20;99.90
29713;DHT22;16623;53.632;10.016;2023-09-19T01:51:09;17.20;99.90
29713;DHT22;16623;53.632;10.016;2023-09-19T01:53:45;17.20;99.90
29713;DHT22;16623;53.632;10.016;2023-09-19T01:56:22;17.10;99.90
29713;DHT22;16623;53.632;10.016;2023-09-19T01:58:54;17.20;99.90
29713;DHT22;16623;53.632;10.016;2023-09-19T02:01:23;17.20;99.90
29713;DHT22;16623;53.632;10.016;2023-09-19T02:03:50;17.10;99.90
29713;DHT22;16623;53.632;10.016;2023-09-19T02:06:16;17.10;99.90
29713;DHT22;16623;53.632;10.016;2023-09-19T02:08:43;17.10;99.90
29713;DHT22;16623;53.632;10.016;2023-09-19T02:11:12;17.10;99.90
29713;DHT22;16623;53.632;10.016;2023-09-19T02:13:38;17.10;99.90
29713;DHT22;16623;53.632;10.016;2023-09-19T02:16:04;17.00;99.90
29713;DHT22;16623;53.632;10.016;2023-09-19T02:18:41;17.00;99.90
29713;DHT22;16623;53.632;10.016;2023-09-19T02:21:07;17.00;99.90
29713;DHT22;16623;53.632;10.016;2023-09-19T02:23:35;17.00;99.90
29713;DHT22;16623;53.632;10.016;2023-09-19T02:26:01;16.90;99.90
29713;DHT22;16623;53.632;10.016;2023-09-19T02:28:27;16.90;99.90
29713;DHT22;16623;53.632;10.016;2023-09-19T02:30:58;16.90;99.90
29713;DHT22;16623;53.632;10.016;2023-09-19T02:33:24;16.90;99.90
29713;DHT22;16623;53.632;10.016;2023-09-19T02:35:54;16.90;99.90
29713;DHT22;16623;53.632;10.016;2023-09-19T02:38:23;16.80;99.90
29713;DHT22;16623;53.632;10.016;2023-09-19T02:40:50;16.80;99.90
29713;DHT22;16623;53.632;10.016;2023-09-19T02:43:15;16.80;99.90
29713;DHT22;16623;53.632;10.016;2023-09-19T02:45:42;16.70;99.90
29713;DHT22;16623;53.632;10.016;2023-09-19T02:48:08;16.80;99.90
29713;DHT22;16623;53.632;10.016;2023-09-19T02:50:33;16.70;99.90
29713;DHT22;16623;53.632;10.016;2023-09-19T02:52:59;16.80;99.90
29713;DHT22;16623;53.632;10.016;2023-09-19T02:55:25;16.70;99.90
29713;DHT22;16623;53.632;10.016;2023-09-19T02:57:52;16.70;99.90
29713;DHT22;16623;53.632;10.016;2023-09-19T03:00:20;16.70;99.90
29713;DHT22;16623;53.632;10.016;2023-09-19T03:02:53;16.70;99.90
29713;DHT22;16623;53.632;10.016;2023-09-19T03:05:20;16.70;99.90
29713;DHT22;16623;53.632;10.016;2023-09-19T03:07:47;16.70;99.90
29713;DHT22;16623;53.632;10.016;2023-09-19T03:10:17;16.70;99.90
29713;DHT22;16623;53.632;10.016;2023-09-19T03:12:43;16.70;99.90
29713;DHT22;16623;53.632;10.016;2023-09-19T03:15:08;16.80;99.90
29713;DHT22;16623;53.632;10.016;2023-09-19T03:17:34;16.70;99.90
29713;DHT22;16623;53.632;10.016;2023-09-19T03:20:02;16.80;99.90
29713;DHT22;16623;53.632;10.016;2023-09-19T03:22:29;16.80;99.90
29713;DHT22;16623;53.632;10.016;2023-09-19T03:24:57;16.70;99.90
29713;DHT22;16623;53.632;10.016;2023-09-19T03:27:23;16.70;99.90
29713;DHT22;16623;53.632;10.016;2023-09-19T03:29:48;16.80;99.90
29713;DHT22;16623;53.632;10.016;2023-09-19T03:32:14;16.80;99.90
29713;DHT22;16623;53.632;10.016;2023-09-19T03:34:39;16.80;99.90
29713;DHT22;16623;53.632;10.016;2023-09-19T03:37:09;16.70;99.90
29713;DHT22;16623;53.632;10.016;2023-09-19T03:39:34;16.80;99.90
29713;DHT22;16623;53.632;10.016;2023-09-19T03:42:01;16.70;99.90
29713;DHT22;16623;53.632;10.016;2023-09-19T03:44:28;16.70;99.90
29713;DHT22;16623;53.632;10.016;2023-09-19T03:46:53;16.70;99.90
29713;DHT22;16623;53.632;10.016;2023-09-19T03:49:20;16.70;99.90
29713;DHT22;16623;53.632;10.016;2023-09-19T03:51:46;16.70;99.90
29713;DHT22;16623;53.632;10.016;2023-09-19T03:54:12;16.60;99.90
29713;DHT22;16623;53.632;10.016;2023-09-19T03:56:38;16.60;99.90
29713;DHT22;16623;53.632;10.016;2023-09-19T03:59:03;16.70;99.90
29713;DHT22;16623;53.632;10.016;2023-09-19T04:01:29;16.70;99.90
29713;DHT22;16623;53.632;10.016;2023-09-19T04:03:57;16.60;99.90
29713;DHT22;16623;53.632;10.016;2023-09-19T04:06:23;16.50;99.90
29713;DHT22;16623;53.632;10.016;2023-09-19T04:08:49;16.50;99.90
29713;DHT22;16623;53.632;10.016;2023-09-19T04:11:14;16.50;99.90
29713;DHT22;16623;53.632;10.016;2023-09-19T04:13:40;16.50;99.90
29713;DHT22;16623;53.632;10.016;2023-09-19T04:16:06;16.30;99.90
29713;DHT22;16623;53.632;10.016;2023-09-19T04:18:35;16.30;99.90
29713;DHT22;16623;53.632;10.016;2023-09-19T04:21:04;16.30;99.90
29713;DHT22;16623;53.632;10.016;2023-09-19T04:25:57;16.20;99.90
29713;DHT22;16623;53.632;10.016;2023-09-19T04:28:23;16.20;99.90
29713;DHT22;16623;53.632;10.016;2023-09-19T04:30:49;16.10;99.90
29713;DHT22;16623;53.632;10.016;2023-09-19T04:33:15;16.00;99.90
29713;DHT22;16623;53.632;10.016;2023-09-19T04:35:41;16.00;99.90
29713;DHT22;16623;53.632;10.016;2023-09-19T04:38:07;16.00;99.90
29713;DHT22;16623;53.632;10.016;2023-09-19T04:40:33;16.00;99.90
29713;DHT22;16623;53.632;10.016;2023-09-19T04:43:00;15.90;99.90
29713;DHT22;16623;53.632;10.016;2023-09-19T04:45:27;15.80;99.90
29713;DHT22;16623;53.632;10.016;2023-09-19T04:47:54;15.90;99.90
29713;DHT22;16623;53.632;10.016;2023-09-19T04:50:20;15.80;99.90
29713;DHT22;16623;53.632;10.016;2023-09-19T04:52:49;15.80;99.90
29713;DHT22;16623;53.632;10.016;2023-09-19T04:55:20;15.70;99.90
29713;DHT22;16623;53.632;10.016;2023-09-19T04:57:50;15.70;99.90
29713;DHT22;16623;53.632;10.016;2023-09-19T05:00:17;15.70;99.90
29713;DHT22;16623;53.632;10.016;2023-09-19T05:02:52;15.70;99.90
29713;DHT22;16623;53.632;10.016;2023-09-19T05:05:19;15.70;99.90
29713;DHT22;16623;53.632;10.016;2023-09-19T05:07:46;15.70;99.90
29713;DHT22;16623;53.632;10.016;2023-09-19T05:10:13;15.60;99.90
29713;DHT22;16623;53.632;10.016;2023-09-19T05:12:40;15.50;99.90
29713;DHT22;16623;53.632;10.016;2023-09-19T05:15:06;15.50;99.90
29713;DHT22;16623;53.632;10.016;2023-09-19T05:17:33;15.50;99.90
29713;DHT22;16623;53.632;10.016;2023-09-19T05:20:00;15.50;99.90
29713;DHT22;16623;53.632;10.016;2023-09-19T05:22:50;15.50;99.90
29713;DHT22;16623;53.632;10.016;2023-09-19T05:25:16;15.50;99.90
29713;DHT22;16623;53.632;10.016;2023-09-19T05:27:44;15.40;99.90
29713;DHT22;16623;53.632;10.016;2023-09-19T05:30:10;15.40;99.90
29713;DHT22;16623;53.632;10.016;2023-09-19T05:32:36;15.50;99.90
29713;DHT22;16623;53.632;10.016;2023-09-19T05:35:01;15.30;99.90
29713;DHT22;16623;53.632;10.016;2023-09-19T05:37:28;15.30;99.90
29713;DHT22;16623;53.632;10.016;2023-09-19T05:39:54;15.30;99.90
29713;DHT22;16623;53.632;10.016;2023-09-19T05:42:20;15.30;99.90
29713;DHT22;16623;53.632;10.016;2023-09-19T05:44:46;15.40;99.90
29713;DHT22;16623;53.632;10.016;2023-09-19T05:47:11;15.30;99.90
29713;DHT22;16623;53.632;10.016;2023-09-19T05:49:38;15.30;99.90
29713;DHT22;16623;53.632;10.016;2023-09-19T05:52:05;15.30;99.90
29713;DHT22;16623;53.632;10.016;2023-09-19T05:54:32;15.20;99.90
29713;DHT22;16623;53.632;10.016;2023-09-19T05:57:00;15.30;99.90
29713;DHT22;16623;53.632;10.016;2023-09-19T05:59:25;15.30;99.90
29713;DHT22;16623;53.632;10.016;2023-09-19T06:01:51;15.70;99.90
29713;DHT22;16623;53.632;10.016;2023-09-19T06:04:17;15.30;99.90
29713;DHT22;16623;53.632;10.016;2023-09-19T06:06:44;15.40;99.90
29713;DHT22;16623;53.632;10.016;2023-09-19T06:09:10;15.40;99.90
29713;DHT22;16623;53.632;10.016;2023-09-19T06:11:36;15.50;99.90
29713;DHT22;16623;53.632;10.016;2023-09-19T06:16:31;15.70;99.90
29713;DHT22;16623;53.632;10.016;2023-09-19T06:18:59;15.80;99.90
29713;DHT22;16623;53.632;10.016;2023-09-19T06:21:28;15.80;99.90
29713;DHT22;16623;53.632;10.016;2023-09-19T06:23:54;15.90;99.90
29713;DHT22;16623;53.632;10.016;2023-09-19T06:26:20;15.90;99.90
29713;DHT22;16623;53.632;10.016;2023-09-19T06:28:45;15.90;99.90
29713;DHT22;16623;53.632;10.016;2023-09-19T06:31:11;16.00;99.90
29713;DHT22;16623;53.632;10.016;2023-09-19T06:33:37;16.00;99.90
29713;DHT22;16623;53.632;10.016;2023-09-19T06:36:06;16.00;99.90
29713;DHT22;16623;53.632;10.016;2023-09-19T06:38:32;17.20;99.90
29713;DHT22;16623;53.632;10.016;2023-09-19T06:41:01;15.90;99.90
29713;DHT22;16623;53.632;10.016;2023-09-19T06:43:30;15.90;99.90
29713;DHT22;16623;53.632;10.016;2023-09-19T06:45:56;15.90;99.90
29713;DHT22;16623;53.632;10.016;2023-09-19T06:48:23;16.00;99.90
29713;DHT22;16623;53.632;10.016;2023-09-19T06:50:53;16.00;99.90
29713;DHT22;16623;53.632;10.016;2023-09-19T06:53:18;16.00;99.90
29713;DHT22;16623;53.632;10.016;2023-09-19T06:55:44;16.10;99.90
29713;DHT22;16623;53.632;10.016;2023-09-19T06:58:10;16.10;99.90
29713;DHT22;16623;53.632;10.016;2023-09-19T07:00:36;16.10;99.90
29713;DHT22;16623;53.632;10.016;2023-09-19T07:03:04;16.10;99.90
29713;DHT22;16623;53.632;10.016;2023-09-19T07:05:34;16.20;99.90
29713;DHT22;16623;53.632;10.016;2023-09-19T07:08:05;16.10;99.90
29713;DHT22;16623;53.632;10.016;2023-09-19T07:10:32;16.20;99.90
29713;DHT22;16623;53.632;10.016;2023-09-19T07:13:03;16.20;99.90
29713;DHT22;16623;53.632;10.016;2023-09-19T07:15:31;16.20;99.90
29713;DHT22;16623;53.632;10.016;2023-09-19T07:17:58;16.20;99.90
29713;DHT22;16623;53.632;10.016;2023-09-19T07:20:26;16.30;99.90
29713;DHT22;16623;53.632;10.016;2023-09-19T07:22:52;16.30;99.90
29713;DHT22;16623;53.632;10.016;2023-09-19T07:25:22;16.30;99.90
29713;DHT22;16623;53.632;10.016;2023-09-19T07:27:49;16.30;99.90
29713;DHT22;16623;53.632;10.016;2023-09-19T07:30:16;16.30;99.90
29713;DHT22;16623;53.632;10.016;2023-09-19T07:32:42;16.40;99.90
29713;DHT22;16623;53.632;10.016;2023-09-19T07:35:10;16.40;99.90
29713;DHT22;16623;53.632;10.016;2023-09-19T07:37:37;16.40;99.90
29713;DHT22;16623;53.632;10.016;2023-09-19T07:40:03;16.40;99.90
29713;DHT22;16623;53.632;10.016;2023-09-19T07:42:33;16.40;99.90
29713;DHT22;16623;53.632;10.016;2023-09-19T07:45:03;16.40;99.90
29713;DHT22;16623;53.632;10.016;2023-09-19T07:47:29;16.40;99.90
29713;DHT22;16623;53.632;10.016;2023-09-19T07:49:55;16.40;99.90
29713;DHT22;16623;53.632;10.016;2023-09-19T07:52:21;16.30;99.90
29713;DHT22;16623;53.632;10.016;2023-09-19T07:54:48;16.30;99.90
29713;DHT22;16623;53.632;10.016;2023-09-19T07:57:15;16.20;99.90
29713;DHT22;16623;53.632;10.016;2023-09-19T07:59:41;16.00;99.90
29713;DHT22;16623;53.632;10.016;2023-09-19T08:02:07;15.90;99.90
29713;DHT22;16623;53.632;10.016;2023-09-19T08:04:38;15.80;99.90
29713;DHT22;16623;53.632;10.016;2023-09-19T08:07:04;15.80;99.90
29713;DHT22;16623;53.632;10.016;2023-09-19T08:09:31;15.70;99.90
29713;DHT22;16623;53.632;10.016;2023-09-19T08:11:59;15.70;99.90
29713;DHT22;16623;53.632;10.016;2023-09-19T08:14:28;15.80;99.90
29713;DHT22;16623;53.632;10.016;2023-09-19T08:16:57;15.80;99.90
29713;DHT22;16623;53.632;10.016;2023-09-19T08:19:23;15.80;99.90
29713;DHT22;16623;53.632;10.016;2023-09-19T08:21:56;15.80;99.90
29713;DHT22;16623;53.632;10.016;2023-09-19T08:24:28;15.80;99.90
29713;DHT22;16623;53.632;10.016;2023-09-19T08:26:55;15.80;99.90
29713;DHT22;16623;53.632;10.016;2023-09-19T08:29:21;15.80;99.90
29713;DHT22;16623;53.632;10.016;2023-09-19T08:31:47;15.90;99.90
29713;DHT22;16623;53.632;10.016;2023-09-19T08:34:15;16.00;99.90
29713;DHT22;16623;53.632;10.016;2023-09-19T08:36:41;16.10;99.90
29713;DHT22;16623;53.632;10.016;2023-09-19T08:39:09;16.20;99.90
29713;DHT22;16623;53.632;10.016;2023-09-19T08:41:34;16.30;99.90
29713;DHT22;16623;53.632;10.016;2023-09-19T08:44:00;16.30;99.90
29713;DHT22;16623;53.632;10.016;2023-09-19T08:46:30;16.30;99.90
29713;DHT22;16623;53.632;10.016;2023-09-19T08:49:03;16.40;99.90
29713;DHT22;16623;53.632;10.016;2023-09-19T08:51:43;16.40;99.90
29713;DHT22;16623;53.632;10.016;2023-09-19T08:54:32;16.30;99.90
29713;DHT22;16623;53.632;10.016;2023-09-19T08:57:04;16.40;99.90
29713;DHT22;16623;53.632;10.016;2023-09-19T08:59:33;16.50;99.90
29713;DHT22;16623;53.632;10.016;2023-09-19T09:02:00;16.50;99.90
29713;DHT22;16623;53.632;10.016;2023-09-19T09:04:27;16.50;99.90
29713;DHT22;16623;53.632;10.016;2023-09-19T09:06:53;16.50;99.90
29713;DHT22;16623;53.632;10.016;2023-09-19T09:09:20;16.60;99.90
29713;DHT22;16623;53.632;10.016;2023-09-19T09:11:48;16.60;99.90
29713;DHT22;16623;53.632;10.016;2023-09-19T09:14:19;16.70;99.90
29713;DHT22;16623;53.632;10.016;2023-09-19T09:16:45;16.70;99.90
29713;DHT22;16623;53.632;10.016;2023-09-19T09:19:11;16.70;99.90
29713;DHT22;16623;53.632;10.016;2023-09-19T09:21:39;16.70;99.90
29713;DHT22;16623;53.632;10.016;2023-09-19T09:24:26;16.70;99.90
29713;DHT22;16623;53.632;10.016;2023-09-19T09:26:54;16.80;99.90
29713;DHT22;16623;53.632;10.016;2023-09-19T09:29:41;16.80;99.90
29713;DHT22;16623;53.632;10.016;2023-09-19T09:34:50;17.00;99.90
29713;DHT22;16623;53.632;10.016;2023-09-19T09:37:17;17.10;99.90
29713;DHT22;16623;53.632;10.016;2023-09-19T09:40:04;17.10;99.90
29713;DHT22;16623;53.632;10.016;2023-09-19T09:42:39;17.20;99.90
29713;DHT22;16623;53.632;10.016;2023-09-19T09:45:19;17.20;99.90
29713;DHT22;16623;53.632;10.016;2023-09-19T09:47:53;17.40;99.90
29713;DHT22;16623;53.632;10.016;2023-09-19T09:53:26;17.60;99.90
29713;DHT22;16623;53.632;10.016;2023-09-19T09:56:08;17.70;99.90
29713;DHT22;16623;53.632;10.016;2023-09-19T09:58:51;17.70;99.90
29713;DHT22;16623;53.632;10.016;2023-09-19T10:01:21;17.80;99.90
29713;DHT22;16623;53.632;10.016;2023-09-19T10:03:57;17.90;99.90
29713;DHT22;16623;53.632;10.016;2023-09-19T10:06:23;17.90;99.90
29713;DHT22;16623;53.632;10.016;2023-09-19T10:12:03;18.00;99.90
29713;DHT22;16623;53.632;10.016;2023-09-19T10:14:35;18.30;99.90
29713;DHT22;16623;53.632;10.016;2023-09-19T10:17:06;18.40;99.90
29713;DHT22;16623;53.632;10.016;2023-09-19T10:19:45;18.40;99.90
29713;DHT22;16623;53.632;10.016;2023-09-19T10:22:14;18.40;99.90
29713;DHT22;16623;53.632;10.016;2023-09-19T10:24:43;18.40;99.90
29713;DHT22;16623;53.632;10.016;2023-09-19T10:27:11;18.40;99.90
29713;DHT22;16623;53.632;10.016;2023-09-19T10:29:39;18.30;99.90
29713;DHT22;16623;53.632;10.016;2023-09-19T10:32:06;18.40;99.90
29713;DHT22;16623;53.632;10.016;2023-09-19T10:34:36;18.40;99.90
29713;DHT22;16623;53.632;10.016;2023-09-19T10:37:02;18.50;99.90
29713;DHT22;16623;53.632;10.016;2023-09-19T10:39:32;18.60;99.90
29713;DHT22;16623;53.632;10.016;2023-09-19T10:42:02;18.70;99.90
29713;DHT22;16623;53.632;10.016;2023-09-19T10:44:32;18.80;99.90
29713;DHT22;16623;53.632;10.016;2023-09-19T10:46:58;18.90;99.90
29713;DHT22;16623;53.632;10.016;2023-09-19T10:49:25;19.00;99.90
29713;DHT22;16623;53.632;10.016;2023-09-19T10:51:55;18.80;99.90
29713;DHT22;16623;53.632;10.016;2023-09-19T10:54:27;18.80;99.90
29713;DHT22;16623;53.632;10.016;2023-09-19T10:56:54;18.80;99.90
29713;DHT22;16623;53.632;10.016;2023-09-19T10:59:21;18.70;99.90
29713;DHT22;16623;53.632;10.016;2023-09-19T11:01:54;18.70;99.90
29713;DHT22;16623;53.632;10.016;2023-09-19T11:04:30;18.80;99.90
29713;DHT22;16623;53.632;10.016;2023-09-19T11:07:03;18.70;99.90
29713;DHT22;16623;53.632;10.016;2023-09-19T11:09:48;18.70;99.90
29713;DHT22;16623;53.632;10.016;2023-09-19T11:15:09;18.80;99.90
29713;DHT22;16623;53.632;10.016;2023-09-19T11:17:40;18.70;99.90
29713;DHT22;16623;53.632;10.016;2023-09-19T11:30:31;18.40;99.90
29713;DHT22;16623;53.632;10.016;2023-09-19T11:36:07;18.40;99.90
29713;DHT22;16623;53.632;10.016;2023-09-19T11:46:27;18.60;99.90
29713;DHT22;16623;53.632;10.016;2023-09-19T11:48:54;18.60;99.90
29713;DHT22;16623;53.632;10.016;2023-09-19T11:51:23;18.60;99.90
29713;DHT22;16623;53.632;10.016;2023-09-19T11:53:56;18.70;99.90
29713;DHT22;16623;53.632;10.016;2023-09-19T11:56:24;18.60;99.90
29713;DHT22;16623;53.632;10.016;2023-09-19T11:58:52;18.60;99.90
29713;DHT22;16623;53.632;10.016;2023-09-19T12:01:42;18.70;99.90
29713;DHT22;16623;53.632;10.016;2023-09-19T12:04:16;18.70;99.90
29713;DHT22;16623;53.632;10.016;2023-09-19T12:06:43;18.80;99.90
29713;DHT22;16623;53.632;10.016;2023-09-19T12:09:22;18.80;99.90
29713;DHT22;16623;53.632;10.016;2023-09-19T12:11:48;18.90;99.90
29713;DHT22;16623;53.632;10.016;2023-09-19T12:14:24;18.90;99.90
29713;DHT22;16623;53.632;10.016;2023-09-19T12:16:56;19.10;99.90
29713;DHT22;16623;53.632;10.016;2023-09-19T12:19:22;19.00;99.90
29713;DHT22;16623;53.632;10.016;2023-09-19T12:22:02;19.10;99.90
29713;DHT22;16623;53.632;10.016;2023-09-19T12:24:32;19.00;99.90
29713;DHT22;16623;53.632;10.016;2023-09-19T12:27:02;18.80;99.90
29713;DHT22;16623;53.632;10.016;2023-09-19T12:29:31;19.00;99.90
29713;DHT22;16623;53.632;10.016;2023-09-19T12:31:58;19.00;99.90
29713;DHT22;16623;53.632;10.016;2023-09-19T12:34:28;19.00;99.90
29713;DHT22;16623;53.632;10.016;2023-09-19T12:37:10;19.30;99.90
29713;DHT22;16623;53.632;10.016;2023-09-19T12:39:51;19.20;99.90
29713;DHT22;16623;53.632;10.016;2023-09-19T12:42:22;19.40;99.90
29713;DHT22;16623;53.632;10.016;2023-09-19T12:44:50;19.40;99.90
29713;DHT22;16623;53.632;10.016;2023-09-19T12:47:23;19.30;99.90
29713;DHT22;16623;53.632;10.016;2023-09-19T12:50:12;19.30;99.90
29713;DHT22;16623;53.632;10.016;2023-09-19T12:52:50;19.30;99.90
29713;DHT22;16623;53.632;10.016;2023-09-19T13:05:54;19.30;99.90
29713;DHT22;16623;53.632;10.016;2023-09-19T13:08:36;19.40;99.90
29713;DHT22;16623;53.632;10.016;2023-09-19T13:13:36;19.60;99.90
29713;DHT22;16623;53.632;10.016;2023-09-19T13:16:03;19.70;99.90
29713;DHT22;16623;53.632;10.016;2023-09-19T13:18:41;19.70;99.90
29713;DHT22;16623;53.632;10.016;2023-09-19T13:21:09;19.80;99.90
29713;DHT22;16623;53.632;10.016;2023-09-19T13:23:52;19.70;99.90
29713;DHT22;16623;53.632;10.016;2023-09-19T13:26:18;19.70;99.90
29713;DHT22;16623;53.632;10.016;2023-09-19T13:28:47;19.60;99.90
29713;DHT22;16623;53.632;10.016;2023-09-19T13:31:14;19.60;99.90
29713;DHT22;16623;53.632;10.016;2023-09-19T13:33:44;19.70;99.90
29713;DHT22;16623;53.632;10.016;2023-09-19T13:36:13;19.70;99.90
29713;DHT22;16623;53.632;10.016;2023-09-19T13:38:42;19.80;99.90
29713;DHT22;16623;53.632;10.016;2023-09-19T13:41:13;19.90;99.90
29713;DHT22;16623;53.632;10.016;2023-09-19T13:43:39;19.80;99.90
29713;DHT22;16623;53.632;10.016;2023-09-19T13:46:05;19.80;99.90
29713;DHT22;16623;53.632;10.016;2023-09-19T13:48:37;19.70;99.90
29713;DHT22;16623;53.632;10.016;2023-09-19T13:51:04;19.80;99.90
29713;DHT22;16623;53.632;10.016;2023-09-19T13:53:30;19.90;99.90
29713;DHT22;16623;53.632;10.016;2023-09-19T13:55:55;19.90;99.90
29713;DHT22;16623;53.632;10.016;2023-09-19T13:58:21;19.90;99.90
29713;DHT22;16623;53.632;10.016;2023-09-19T14:00:48;19.90;99.90
29713;DHT22;16623;53.632;10.016;2023-09-19T14:03:14;19.80;99.90
29713;DHT22;16623;53.632;10.016;2023-09-19T14:05:40;19.80;99.90
29713;DHT22;16623;53.632;10.016;2023-09-19T14:08:08;19.80;99.90
29713;DHT22;16623;53.632;10.016;2023-09-19T14:10:34;19.80;99.90
29713;DHT22;16623;53.632;10.016;2023-09-19T14:13:00;19.80;99.90
29713;DHT22;16623;53.632;10.016;2023-09-19T14:15:27;19.70;99.90
29713;DHT22;16623;53.632;10.016;2023-09-19T14:17:56;19.70;99.90
29713;DHT22;16623;53.632;10.016;2023-09-19T14:20:22;19.70;99.90
29713;DHT22;16623;53.632;10.016;2023-09-19T14:22:48;19.70;99.90
29713;DHT22;16623;53.632;10.016;2023-09-19T14:25:17;19.80;99.90
29713;DHT22;16623;53.632;10.016;2023-09-19T14:27:43;19.80;99.90
29713;DHT22;16623;53.632;10.016;2023-09-19T14:30:08;19.80;99.90
29713;DHT22;16623;53.632;10.016;2023-09-19T14:32:34;19.80;99.90
29713;DHT22;16623;53.632;10.016;2023-09-19T14:35:02;19.70;99.90
29713;DHT22;16623;53.632;10.016;2023-09-19T14:37:27;19.70;99.90
29713;DHT22;16623;53.632;10.016;2023-09-19T14:39:53;19.70;99.90
29713;DHT22;16623;53.632;10.016;2023-09-19T14:42:19;19.70;99.90
29713;DHT22;16623;53.632;10.016;2023-09-19T14:44:45;19.70;99.90
29713;DHT22;16623;53.632;10.016;2023-09-19T14:47:12;19.70;99.90
29713;DHT22;16623;53.632;10.016;2023-09-19T14:49:41;19.70;99.90
29713;DHT22;16623;53.632;10.016;2023-09-19T14:52:08;19.60;99.90
29713;DHT22;16623;53.632;10.016;2023-09-19T14:54:33;19.60;99.90
29713;DHT22;16623;53.632;10.016;2023-09-19T14:56:59;19.60;99.90
29713;DHT22;16623;53.632;10.016;2023-09-19T14:59:34;19.60;99.90
29713;DHT22;16623;53.632;10.016;2023-09-19T15:02:03;19.50;99.90
29713;DHT22;16623;53.632;10.016;2023-09-19T15:04:29;19.50;99.90
29713;DHT22;16623;53.632;10.016;2023-09-19T15:06:55;19.60;99.90
29713;DHT22;16623;53.632;10.016;2023-09-19T15:09:21;19.50;99.90
29713;DHT22;16623;53.632;10.016;2023-09-19T15:11:49;19.50;99.90
29713;DHT22;16623;53.632;10.016;2023-09-19T15:14:18;19.50;99.90
29713;DHT22;16623;53.632;10.016;2023-09-19T15:16:43;19.60;99.90
29713;DHT22;16623;53.632;10.016;2023-09-19T15:19:09;19.50;99.90
29713;DHT22;16623;53.632;10.016;2023-09-19T15:21:36;19.50;99.90
29713;DHT22;16623;53.632;10.016;2023-09-19T15:24:06;19.40;99.90
29713;DHT22;16623;53.632;10.016;2023-09-19T15:26:41;19.40;99.90
29713;DHT22;16623;53.632;10.016;2023-09-19T15:29:09;19.50;99.90
29713;DHT22;16623;53.632;10.016;2023-09-19T15:31:35;19.40;99.90
29713;DHT22;16623;53.632;10.016;2023-09-19T15:34:03;19.40;99.90
29713;DHT22;16623;53.632;10.016;2023-09-19T15:36:29;19.40;99.90
29713;DHT22;16623;53.632;10.016;2023-09-19T15:43:56;19.30;99.90
29713;DHT22;16623;53.632;10.016;2023-09-19T15:46:23;19.30;99.90
29713;DHT22;16623;53.632;10.016;2023-09-19T15:48:49;19.30;99.90
29713;DHT22;16623;53.632;10.016;2023-09-19T15:51:15;19.30;99.90
29713;DHT22;16623;53.632;10.016;2023-09-19T15:53:49;19.20;99.90
29713;DHT22;16623;53.632;10.016;2023-09-19T15:56:16;19.20;99.90
29713;DHT22;16623;53.632;10.016;2023-09-19T15:58:47;19.30;99.90
29713;DHT22;16623;53.632;10.016;2023-09-19T16:01:13;19.30;99.90
29713;DHT22;16623;53.632;10.016;2023-09-19T16:03:46;19.30;99.90
29713;DHT22;16623;53.632;10.016;2023-09-19T16:06:20;19.20;99.90
29713;DHT22;16623;53.632;10.016;2023-09-19T16:08:47;19.20;99.90
29713;DHT22;16623;53.632;10.016;2023-09-19T16:11:13;19.20;99.90
29713;DHT22;16623;53.632;10.016;2023-09-19T16:13:39;19.20;99.90
29713;DHT22;16623;53.632;10.016;2023-09-19T16:16:11;19.20;99.90
29713;DHT22;16623;53.632;10.016;2023-09-19T16:18:38;19.20;99.90
29713;DHT22;16623;53.632;10.016;2023-09-19T16:21:05;19.20;99.90
29713;DHT22;16623;53.632;10.016;2023-09-19T16:23:32;19.20;99.90